Time;durP1;ratioP1;P1;durP2;ratioP2;P2;SDS_P1;SDS_P2;PMS_P1;PMS_P2;Temp;Humidity;BMP_temperature;BMP_pressure;BME280_temperature;BME280_humidity;BME280_pressure;Samples;Min_cycle;Max_cycle;Signal;HPM_P1;HPM_P2
2021/05/29 00:00:18;;;;;;;;;;;13.60;99.90;;;;;;5095949;28;19934;-77
2021/05/29 00:02:46;;;;;;;;;;;13.60;99.90;;;;;;5096200;28;20003;-72
2021/05/29 00:05:12;;;;;;;;;;;13.60;99.90;;;;;;5095451;28;19920;-72
2021/05/29 00:07:38;;;;;;;;;;;13.50;99.90;;;;;;5094249;28;19930;-71
2021/05/29 00:10:05;;;;;;;;;;;13.50;99.90;;;;;;5094142;28;19926;-71
2021/05/29 00:12:32;;;;;;;;;;;13.50;99.90;;;;;;5095866;28;20232;-78
2021/05/29 00:14:59;;;;;;;;;;;13.40;99.90;;;;;;5095141;28;19920;-78
2021/05/29 00:17:25;;;;;;;;;;;13.40;99.90;;;;;;5095064;28;19920;-82
2021/05/29 00:19:51;;;;;;;;;;;13.40;99.90;;;;;;5095991;28;19924;-79
2021/05/29 00:22:18;;;;;;;;;;;13.40;99.90;;;;;;5095685;28;19930;-86
2021/05/29 00:24:45;;;;;;;6.40;4.00;;;13.40;99.90;;;;;;5092021;28;20421;-88
2021/05/29 00:27:11;;;;;;;4.68;3.88;;;13.40;99.90;;;;;;5095181;28;20048;-87
2021/05/29 00:29:39;;;;;;;6.35;3.38;;;13.50;99.90;;;;;;5095385;28;20063;-86
2021/05/29 00:32:06;;;;;;;6.78;3.50;;;13.40;99.90;;;;;;5095200;28;20105;-86
2021/05/29 00:34:33;;;;;;;5.78;3.50;;;13.40;99.90;;;;;;5095161;28;20063;-81
2021/05/29 00:37:00;;;;;;;6.13;3.60;;;13.40;99.90;;;;;;5095207;28;20529;-84
2021/05/29 00:39:26;;;;;;;5.43;4.00;;;13.40;99.90;;;;;;5095172;28;20045;-83
2021/05/29 00:41:53;;;;;;;7.10;3.53;;;13.40;99.90;;;;;;5095229;28;20116;-85
2021/05/29 00:44:19;;;;;;;;;;;13.40;99.90;;;;;;5095600;28;20044;-82
2021/05/29 00:46:47;;;;;;;;;;;13.30;99.90;;;;;;5095436;28;19920;-85
2021/05/29 00:49:13;;;;;;;;;;;13.30;99.90;;;;;;5095313;28;19923;-87
2021/05/29 00:51:40;;;;;;;;;;;13.30;99.90;;;;;;5095343;28;19948;-86
2021/05/29 00:54:06;;;;;;;;;;;13.30;99.90;;;;;;5095231;28;19920;-86
2021/05/29 00:56:32;;;;;;;;;;;13.30;99.90;;;;;;5095389;28;19920;-88
2021/05/29 00:58:59;;;;;;;;;;;13.40;99.90;;;;;;5095165;28;19920;-84
2021/05/29 01:01:25;;;;;;;;;;;13.40;99.90;;;;;;5095204;28;20328;-85
2021/05/29 01:03:52;;;;;;;;;;;13.40;99.90;;;;;;5095347;28;20253;-80
2021/05/29 01:06:19;;;;;;;;;;;13.40;99.90;;;;;;5095239;28;19920;-80
2021/05/29 01:08:45;;;;;;;;;;;13.40;99.90;;;;;;5095154;28;20392;-80
2021/05/29 01:11:12;;;;;;;;;;;13.40;99.90;;;;;;5095022;28;20263;-81
2021/05/29 01:13:38;;;;;;;;;;;13.40;99.90;;;;;;5095106;28;19920;-81
2021/05/29 01:16:09;;;;;;;;;;;13.40;99.90;;;;;;5094978;28;20336;-83
2021/05/29 01:18:35;;;;;;;;;;;13.40;99.90;;;;;;5095068;28;19920;-81
2021/05/29 01:21:04;;;;;;;;;;;13.40;99.90;;;;;;5095136;28;19920;-79
2021/05/29 01:23:32;;;;;;;;;;;13.40;99.90;;;;;;5095111;28;20026;-81
2021/05/29 01:25:58;;;;;;;;;;;13.30;99.90;;;;;;5095070;28;19919;-80
2021/05/29 01:28:27;;;;;;;;;;;13.30;99.90;;;;;;5094973;28;19930;-84
2021/05/29 01:30:56;;;;;;;;;;;13.30;99.90;;;;;;5095035;28;20344;-81
2021/05/29 01:33:22;;;;;;;;;;;13.40;99.90;;;;;;5094875;28;19920;-80
2021/05/29 01:35:49;;;;;;;;;;;13.30;99.90;;;;;;5094814;28;19920;-80
2021/05/29 01:38:16;;;;;;;;;;;13.40;99.90;;;;;;5094771;28;19920;-81
2021/05/29 01:40:43;;;;;;;;;;;13.30;99.90;;;;;;5094816;28;19927;-81
2021/05/29 01:43:09;;;;;;;;;;;13.30;99.90;;;;;;5094929;28;19919;-81
2021/05/29 01:45:36;;;;;;;;;;;13.30;99.90;;;;;;5094858;28;20309;-82
2021/05/29 01:48:03;;;;;;;;;;;13.30;99.90;;;;;;5094717;28;19924;-83
2021/05/29 01:50:29;;;;;;;;;;;13.30;99.90;;;;;;5094695;28;19930;-84
2021/05/29 01:52:56;;;;;;;;;;;13.30;99.90;;;;;;5094682;28;19931;-84
2021/05/29 01:55:23;;;;;;;;;;;13.30;99.90;;;;;;5094777;28;20371;-84
2021/05/29 01:57:50;;;;;;;;;;;13.30;99.90;;;;;;5095032;28;19920;-84
2021/05/29 02:00:17;;;;;;;;;;;13.30;99.90;;;;;;5094614;28;19920;-83
2021/05/29 02:02:44;;;;;;;;;;;13.30;99.90;;;;;;5094873;28;19924;-82
2021/05/29 02:05:11;;;;;;;;;;;13.30;99.90;;;;;;5098363;28;20371;-83
2021/05/29 02:07:37;;;;;;;;;;;13.30;99.90;;;;;;5098520;28;19923;-82
2021/05/29 02:10:04;;;;;;;;;;;13.30;99.90;;;;;;5098333;28;19928;-83
2021/05/29 02:12:36;;;;;;;;;;;13.30;99.90;;;;;;5098167;28;19919;-83
2021/05/29 02:15:04;;;;;;;;;;;13.20;99.90;;;;;;5098012;28;19920;-82
2021/05/29 02:17:30;;;;;;;;;;;13.20;99.90;;;;;;5098349;28;19946;-82
2021/05/29 02:19:57;;;;;;;;;;;13.30;99.90;;;;;;5098213;28;19930;-79
2021/05/29 02:22:23;;;;;;;;;;;13.30;99.90;;;;;;5098028;28;19920;-80
2021/05/29 02:24:49;;;;;;;;;;;13.20;99.90;;;;;;5097933;28;20263;-78
2021/05/29 02:27:16;;;;;;;;;;;13.20;99.90;;;;;;5098186;28;20332;-80
2021/05/29 02:29:42;;;;;;;;;;;13.20;99.90;;;;;;5097968;28;19930;-80
2021/05/29 02:32:09;;;;;;;;;;;13.20;99.90;;;;;;5097930;28;20311;-80
2021/05/29 02:34:36;;;;;;;;;;;13.20;99.90;;;;;;5097581;28;20022;-80
2021/05/29 02:37:02;;;;;;;;;;;13.20;99.90;;;;;;5097885;28;19977;-79
2021/05/29 02:39:28;;;;;;;;;;;13.20;99.90;;;;;;5097661;28;19926;-80
2021/05/29 02:41:55;;;;;;;;;;;13.20;99.90;;;;;;5097864;28;19920;-80
2021/05/29 02:44:21;;;;;;;;;;;13.20;99.90;;;;;;5097888;28;19919;-81
2021/05/29 02:46:47;;;;;;;;;;;13.10;99.90;;;;;;5097483;28;19984;-79
2021/05/29 02:49:16;;;;;;;;;;;13.10;99.90;;;;;;5097620;28;19924;-79
2021/05/29 02:51:42;;;;;;;;;;;13.10;99.90;;;;;;5097516;28;19967;-78
2021/05/29 02:54:08;;;;;;;;;;;13.10;99.90;;;;;;5097564;28;19920;-79
2021/05/29 02:56:35;;;;;;;;;;;13.10;99.90;;;;;;5097412;28;19920;-80
2021/05/29 02:59:01;;;;;;;;;;;13.10;99.90;;;;;;5097413;28;19920;-79
2021/05/29 03:01:28;;;;;;;;;;;13.00;99.90;;;;;;5097500;28;19924;-79
2021/05/29 03:03:54;;;;;;;;;;;13.00;99.90;;;;;;5097474;28;19969;-79
2021/05/29 03:06:21;;;;;;;;;;;13.00;99.90;;;;;;5097522;28;19920;-79
2021/05/29 03:08:48;;;;;;;;;;;13.00;99.90;;;;;;5097404;28;20267;-79
2021/05/29 03:11:14;;;;;;;;;;;13.00;99.90;;;;;;5097287;28;20352;-77
2021/05/29 03:13:40;;;;;;;;;;;13.00;99.90;;;;;;5097080;28;19919;-79
2021/05/29 03:16:07;;;;;;;;;;;13.00;99.90;;;;;;5095966;28;19919;-78
2021/05/29 03:18:33;;;;;;;;;;;13.00;99.90;;;;;;5097088;28;19919;-79
2021/05/29 03:20:59;;;;;;;;;;;13.00;99.90;;;;;;5096857;28;19920;-78
2021/05/29 03:23:27;;;;;;;;;;;13.00;99.90;;;;;;5097081;28;19938;-80
2021/05/29 03:25:54;;;;;;;;;;;13.00;99.90;;;;;;5097028;28;19970;-79
2021/05/29 03:28:20;;;;;;;;;;;13.00;99.90;;;;;;5097148;28;19926;-79
2021/05/29 03:30:46;;;;;;;;;;;13.00;99.90;;;;;;5096780;28;19919;-79
2021/05/29 03:33:13;;;;;;;;;;;13.00;99.90;;;;;;5096739;28;19920;-78
2021/05/29 03:35:40;;;;;;;;;;;13.00;99.90;;;;;;5096664;28;20252;-79
2021/05/29 03:38:06;;;;;;;;;;;13.00;99.90;;;;;;5096652;28;20317;-79
2021/05/29 03:40:33;;;;;;;;;;;13.00;99.90;;;;;;5096593;28;19942;-78
2021/05/29 03:43:00;;;;;;;;;;;13.00;99.90;;;;;;5096655;28;19920;-79
2021/05/29 03:45:26;;;;;;;;;;;13.00;99.90;;;;;;5096513;28;20328;-78
2021/05/29 03:47:52;;;;;;;;;;;12.90;99.90;;;;;;5096498;28;19920;-79
2021/05/29 03:50:19;;;;;;;;;;;12.90;99.90;;;;;;5096370;28;19972;-80
2021/05/29 03:52:46;;;;;;;;;;;13.00;99.90;;;;;;5096235;28;19927;-77
2021/05/29 03:55:13;;;;;;;;;;;13.00;99.90;;;;;;5096084;28;19926;-78
2021/05/29 03:57:40;;;;;;;;;;;13.00;99.90;;;;;;5096320;28;19920;-79
2021/05/29 04:00:07;;;;;;;;;;;13.00;99.90;;;;;;5096182;28;19920;-79
2021/05/29 04:02:33;;;;;;;;;;;13.10;99.90;;;;;;5096358;28;19920;-78
2021/05/29 04:05:00;;;;;;;;;;;13.10;99.90;;;;;;5096180;28;19928;-79
2021/05/29 04:07:26;;;;;;;;;;;13.10;99.90;;;;;;5096258;28;19920;-78
2021/05/29 04:09:52;;;;;;;;;;;13.10;99.90;;;;;;5096099;28;19920;-84
2021/05/29 04:12:19;;;;;;;;;;;13.10;99.90;;;;;;5096245;28;19920;-82
2021/05/29 04:14:46;;;;;;;;;;;13.10;99.90;;;;;;5095970;28;19920;-82
2021/05/29 04:17:13;;;;;;;;;;;13.10;99.90;;;;;;5095914;28;19919;-82
2021/05/29 04:19:40;;;;;;;;;;;13.10;99.90;;;;;;5095994;28;20035;-82
2021/05/29 04:22:06;;;;;;;;;;;13.10;99.90;;;;;;5095598;28;19920;-80
2021/05/29 04:24:32;;;;;;;;;;;13.10;99.90;;;;;;5095738;28;19920;-82
2021/05/29 04:26:59;;;;;;;;;;;13.10;99.90;;;;;;5095236;28;19930;-82
2021/05/29 04:29:25;;;;;;;;;;;13.10;99.90;;;;;;5095700;28;20400;-81
2021/05/29 04:31:52;;;;;;;;;;;13.10;99.90;;;;;;5095918;28;19972;-82
2021/05/29 04:34:19;;;;;;;;;;;13.10;99.90;;;;;;5095714;28;19920;-82
2021/05/29 04:36:45;;;;;;;;;;;13.10;99.90;;;;;;5095674;28;19926;-81
2021/05/29 04:39:11;;;;;;;;;;;13.10;99.90;;;;;;5095666;28;19920;-82
2021/05/29 04:41:38;;;;;;;;;;;13.10;99.90;;;;;;5095717;28;20259;-80
2021/05/29 04:44:04;;;;;;;;;;;13.10;99.90;;;;;;5095677;28;20249;-81
2021/05/29 04:46:38;;;;;;;;;;;13.10;99.90;;;;;;5095641;28;19920;-81
2021/05/29 04:49:05;;;;;;;;;;;13.10;99.90;;;;;;5095393;28;20348;-82
2021/05/29 04:51:31;;;;;;;;;;;13.20;99.90;;;;;;5095569;28;19920;-81
2021/05/29 04:53:58;;;;;;;;;;;13.20;99.90;;;;;;5095286;28;19934;-80
2021/05/29 04:56:24;;;;;;;;;;;13.20;99.90;;;;;;5095178;28;19926;-79
2021/05/29 04:58:50;;;;;;;;;;;13.20;99.90;;;;;;5095616;28;19920;-81
2021/05/29 05:01:17;;;;;;;;;;;13.20;99.90;;;;;;5095461;28;19930;-81
2021/05/29 05:03:43;;;;;;;;;;;13.20;99.90;;;;;;5095359;28;20027;-81
2021/05/29 05:06:12;;;;;;;;;;;13.30;99.90;;;;;;5095322;28;19920;-81
2021/05/29 05:08:39;;;;;;;;;;;13.30;99.90;;;;;;5095289;28;20377;-81
2021/05/29 05:11:05;;;;;;;;;;;13.30;99.90;;;;;;5095242;28;20332;-80
2021/05/29 05:13:31;;;;;;;;;;;13.30;99.90;;;;;;5095156;28;19930;-81
2021/05/29 05:15:58;;;;;;;;;;;13.40;99.90;;;;;;5094999;28;19924;-79
2021/05/29 05:18:24;;;;;;;;;;;13.40;99.90;;;;;;5095063;28;19928;-80
2021/05/29 05:20:50;;;;;;;;;;;13.40;99.90;;;;;;5094934;28;19946;-81
2021/05/29 05:23:21;;;;;;;;;;;13.40;99.90;;;;;;5095250;28;19920;-79
2021/05/29 05:25:48;;;;;;;;;;;13.40;99.90;;;;;;5095086;28;20355;-81
2021/05/29 05:28:14;;;;;;;;;;;13.50;99.90;;;;;;5095281;28;19919;-81
2021/05/29 05:30:41;;;;;;;;;;;13.50;99.90;;;;;;5094998;28;19965;-81
2021/05/29 05:33:07;;;;;;;;;;;13.40;99.90;;;;;;5095052;28;20225;-80
2021/05/29 05:35:34;;;;;;;;;;;13.50;99.90;;;;;;5094865;28;19920;-79
2021/05/29 05:38:00;;;;;;;;;;;13.50;99.90;;;;;;5095925;28;19924;-80
2021/05/29 05:40:28;;;;;;;;;;;13.50;99.90;;;;;;5099127;28;19920;-80
2021/05/29 05:42:54;;;;;;;;;;;13.40;99.90;;;;;;5099010;28;19930;-79
2021/05/29 05:45:20;;;;;;;;;;;13.40;99.90;;;;;;5098936;28;20023;-80
2021/05/29 05:47:47;;;;;;;;;;;13.50;99.90;;;;;;5098856;28;19926;-80
2021/05/29 05:50:13;;;;;;;;;;;13.50;99.90;;;;;;5098866;28;19919;-80
2021/05/29 05:52:39;;;;;;;;;;;13.40;99.90;;;;;;5098740;28;19924;-80
2021/05/29 05:55:06;;;;;;;;;;;13.50;99.90;;;;;;5098652;28;19953;-80
2021/05/29 05:57:33;;;;;;;;;;;13.50;99.90;;;;;;5098388;28;19931;-79
2021/05/29 06:00:00;;;;;;;;;;;13.50;99.90;;;;;;5098508;28;20014;-80
2021/05/29 06:02:26;;;;;;;;;;;13.50;99.90;;;;;;5098458;28;19967;-79
2021/05/29 06:04:52;;;;;;;;;;;13.50;99.90;;;;;;5098370;28;19968;-81
2021/05/29 06:07:19;;;;;;;;;;;13.50;99.90;;;;;;5098491;28;19927;-80
2021/05/29 06:09:45;;;;;;;;;;;13.50;99.90;;;;;;5098265;28;19927;-80
2021/05/29 06:12:12;;;;;;;;;;;13.50;99.90;;;;;;5098381;28;19919;-81
2021/05/29 06:20:10;;;;;;;;;;;13.70;99.90;;;;;;5098324;28;19923;-80
2021/05/29 06:22:37;;;;;;;;;;;13.80;99.90;;;;;;5098020;28;19919;-81
2021/05/29 06:25:04;;;;;;;;;;;13.90;99.90;;;;;;5098174;28;19928;-80
2021/05/29 06:27:30;;;;;;;;;;;13.90;99.90;;;;;;5098103;28;19920;-81
2021/05/29 06:29:57;;;;;;;;;;;13.90;99.90;;;;;;5097922;28;20271;-80
2021/05/29 06:32:24;;;;;;;;;;;13.90;99.90;;;;;;5097880;28;19928;-81
2021/05/29 06:34:50;;;;;;;;;;;13.90;99.90;;;;;;5097981;28;19920;-80
2021/05/29 06:37:16;;;;;;;;;;;14.00;99.90;;;;;;5098024;28;19919;-80
2021/05/29 06:39:45;;;;;;;;;;;14.00;99.90;;;;;;5097732;28;19920;-80
2021/05/29 06:42:11;;;;;;;;;;;14.00;99.90;;;;;;5097801;28;19919;-81
2021/05/29 06:44:37;;;;;;;;;;;14.10;99.90;;;;;;5097656;28;20359;-81
2021/05/29 06:47:05;;;;;;;;;;;14.00;99.90;;;;;;5097569;28;19990;-80
2021/05/29 06:49:31;;;;;;;;;;;14.10;99.90;;;;;;5097264;28;19920;-79
2021/05/29 06:52:00;;;;;;;;;;;14.10;99.90;;;;;;5097497;28;20343;-81
2021/05/29 06:54:37;;;;;;;;;;;14.10;99.90;;;;;;5097577;28;19920;-81
2021/05/29 06:59:48;;;;;;;;;;;14.10;99.90;;;;;;5097469;28;19989;-79
2021/05/29 07:02:16;;;;;;;;;;;14.20;99.90;;;;;;5097569;28;19920;-79
2021/05/29 07:04:42;;;;;;;;;;;14.30;99.90;;;;;;5097198;28;19930;-80
2021/05/29 07:07:08;;;;;;;6.00;2.88;;;14.40;99.90;;;;;;5096559;28;20429;-78
2021/05/29 07:09:35;;;;;;;4.00;2.75;;;14.40;99.90;;;;;;5096810;28;20434;-79
2021/05/29 07:12:01;;;;;;;;;;;14.50;99.90;;;;;;5097001;28;20044;-80
2021/05/29 07:14:28;;;;;;;;;;;14.60;99.90;;;;;;5096985;28;19927;-79
2021/05/29 07:16:55;;;;;;;;;;;14.70;99.90;;;;;;5097104;28;20003;-80
2021/05/29 07:19:22;;;;;;;;;;;14.80;99.90;;;;;;5097256;28;19920;-79
2021/05/29 07:21:49;;;;;;;6.18;4.03;;;14.90;99.90;;;;;;5095080;28;20887;-77
2021/05/29 07:24:15;;;;;;;;;;;15.00;99.90;;;;;;5096747;28;20048;-79
2021/05/29 07:26:42;;;;;;;;;;;15.10;99.90;;;;;;5096717;28;19924;-79
2021/05/29 07:29:08;;;;;;;;;;;15.20;99.90;;;;;;5096743;28;19978;-79
2021/05/29 07:31:34;;;;;;;;;;;15.30;99.90;;;;;;5096664;28;19924;-79
2021/05/29 07:34:01;;;;;;;;;;;15.40;99.90;;;;;;5096748;28;19924;-79
2021/05/29 07:36:28;;;;;;;;;;;15.60;99.90;;;;;;5096511;28;19989;-79
2021/05/29 07:38:54;;;;;;;;;;;15.70;99.90;;;;;;5096585;28;19924;-78
2021/05/29 07:41:21;;;;;;;;;;;15.90;99.90;;;;;;5096553;28;19934;-80
2021/05/29 07:43:47;;;;;;;;;;;16.00;99.90;;;;;;5096888;28;20271;-80
2021/05/29 07:46:15;;;;;;;;;;;16.10;99.90;;;;;;5096348;28;20373;-80
2021/05/29 07:48:42;;;;;;;;;;;16.20;99.90;;;;;;5096440;28;19924;-79
2021/05/29 07:51:09;;;;;;;;;;;16.20;99.90;;;;;;5096476;28;19934;-80
2021/05/29 07:53:37;;;;;;;;;;;16.30;99.90;;;;;;5096379;28;20259;-79
2021/05/29 07:56:04;;;;;;;;;;;16.40;99.90;;;;;;5096378;28;19930;-79
2021/05/29 07:58:30;;;;;;;;;;;16.40;99.90;;;;;;5096452;28;19924;-80
2021/05/29 08:00:56;;;;;;;;;;;16.50;99.90;;;;;;5095477;28;19931;-80
2021/05/29 08:03:23;;;;;;;;;;;16.50;99.90;;;;;;5096283;28;19924;-80
2021/05/29 08:05:51;;;;;;;;;;;16.60;99.90;;;;;;5096328;28;20240;-80
2021/05/29 08:08:17;;;;;;;;;;;16.70;99.90;;;;;;5095939;28;20058;-80
2021/05/29 08:10:47;;;;;;;;;;;16.70;99.90;;;;;;5095946;28;19928;-79
2021/05/29 08:13:13;;;;;;;;;;;16.80;99.90;;;;;;5096195;28;19993;-80
2021/05/29 08:15:40;;;;;;;;;;;16.90;99.90;;;;;;5095978;28;19924;-80
2021/05/29 08:18:07;;;;;;;;;;;17.00;99.90;;;;;;5095900;28;19924;-79
2021/05/29 08:20:34;;;;;;;;;;;17.20;99.90;;;;;;5095803;28;19924;-78
2021/05/29 08:23:00;;;;;;;;;;;17.40;99.90;;;;;;5095466;28;19924;-78
2021/05/29 08:25:27;;;;;;;;;;;17.70;99.90;;;;;;5095953;28;19924;-78
2021/05/29 08:27:54;;;;;;;;;;;18.10;99.90;;;;;;5095941;28;19977;-78
2021/05/29 08:30:20;;;;;;;;;;;18.50;99.90;;;;;;5095793;28;19924;-78
2021/05/29 08:32:47;;;;;;;;;;;18.90;99.90;;;;;;5095686;28;19935;-78
2021/05/29 08:35:13;;;;;;;;;;;19.20;99.90;;;;;;5095471;28;19937;-77
2021/05/29 08:37:41;;;;;;;;;;;19.50;99.90;;;;;;5095513;28;19932;-78
2021/05/29 08:40:08;;;;;;;;;;;19.60;99.90;;;;;;5095471;28;19924;-78
2021/05/29 08:42:34;;;;;;;;;;;19.60;99.90;;;;;;5095503;28;19934;-78
2021/05/29 08:45:02;;;;;;;;;;;19.60;99.90;;;;;;5095357;28;19931;-77
2021/05/29 08:47:28;;;;;;;;;;;19.40;99.90;;;;;;5095739;28;19924;-77
2021/05/29 08:49:54;;;;;;;;;;;19.20;99.90;;;;;;5095345;28;19924;-77
2021/05/29 08:52:21;;;;;;;;;;;18.90;99.90;;;;;;5095342;28;19924;-77
2021/05/29 08:54:47;;;;;;;;;;;18.70;99.90;;;;;;5095259;28;19924;-77
2021/05/29 08:57:14;;;;;;;;;;;18.40;99.90;;;;;;5095575;28;19938;-77
2021/05/29 08:59:40;;;;;;;;;;;18.30;99.90;;;;;;5095472;28;19924;-77
2021/05/29 09:02:08;;;;;;;;;;;18.30;99.90;;;;;;5095410;28;19924;-77
2021/05/29 09:04:34;;;;;;;;;;;18.20;99.90;;;;;;5095286;28;19934;-78
2021/05/29 09:07:00;;;;;;;;;;;18.10;99.90;;;;;;5095063;28;19924;-77
2021/05/29 09:09:27;;;;;;;;;;;18.10;99.90;;;;;;5095361;28;20264;-77
2021/05/29 09:11:53;;;;;;;;;;;18.10;99.90;;;;;;5096067;28;20313;-77
2021/05/29 09:14:43;;;;;;;;;;;18.10;99.90;;;;;;5099572;28;20310;-77
2021/05/29 09:17:13;;;;;;;;;;;18.10;99.90;;;;;;5099750;28;20264;-77
2021/05/29 09:19:50;;;;;;;;;;;18.10;99.90;;;;;;5099241;28;19928;-77
2021/05/29 09:22:16;;;;;;;;;;;18.10;99.90;;;;;;5099087;28;19935;-77
2021/05/29 09:24:55;;;;;;;;;;;18.10;99.90;;;;;;5099289;28;19976;-77
2021/05/29 09:27:21;;;;;;;;;;;18.10;99.90;;;;;;5099393;28;19981;-77
2021/05/29 09:29:47;;;;;;;;;;;18.00;99.90;;;;;;5099063;28;19924;-77
2021/05/29 09:32:15;;;;;;;;;;;18.00;99.90;;;;;;5099278;28;19928;-77
2021/05/29 09:34:42;;;;;;;;;;;18.10;99.90;;;;;;5098899;28;20267;-77
2021/05/29 09:37:10;;;;;;;;;;;18.10;99.90;;;;;;5098869;28;20432;-77
2021/05/29 09:39:37;;;;;;;;;;;18.10;99.90;;;;;;5099065;28;19975;-77
2021/05/29 09:42:04;;;;;;;;;;;18.00;99.90;;;;;;5098839;28;20015;-77
2021/05/29 09:44:30;;;;;;;;;;;17.90;99.90;;;;;;5098771;28;19924;-77
2021/05/29 09:46:57;;;;;;;;;;;17.90;99.90;;;;;;5099064;28;20007;-78
2021/05/29 09:49:26;;;;;;;;;;;17.90;99.90;;;;;;5098983;28;19934;-77
2021/05/29 09:51:53;;;;;;;;;;;17.90;99.90;;;;;;5098680;28;19963;-77
2021/05/29 09:54:19;;;;;;;;;;;17.90;99.90;;;;;;5098735;28;19946;-77
2021/05/29 09:56:45;;;;;;;;;;;17.90;99.90;;;;;;5098468;28;19936;-78
2021/05/29 09:59:12;;;;;;;;;;;17.90;99.90;;;;;;5098522;28;19928;-77
2021/05/29 10:01:49;;;;;;;;;;;17.90;99.90;;;;;;5098688;28;19924;-77
2021/05/29 10:04:16;;;;;;;;;;;17.80;99.90;;;;;;5098507;28;19924;-77
2021/05/29 10:06:53;;;;;;;;;;;17.80;99.90;;;;;;5098466;28;20011;-78
2021/05/29 10:09:20;;;;;;;;;;;17.80;99.90;;;;;;5098471;28;20363;-77
2021/05/29 10:11:46;;;;;;;;;;;17.90;99.90;;;;;;5098268;28;20302;-77
2021/05/29 10:14:12;;;;;;;;;;;17.90;99.90;;;;;;5098236;28;20358;-77
2021/05/29 10:16:39;;;;;;;;;;;18.00;99.90;;;;;;5098100;28;20355;-77
2021/05/29 10:19:06;;;;;;;;;;;18.10;99.90;;;;;;5098027;28;19924;-77
2021/05/29 10:21:36;;;;;;;;;;;18.20;99.90;;;;;;5097910;28;20340;-77
2021/05/29 10:24:03;;;;;;;;;;;18.30;99.90;;;;;;5097414;28;19924;-77
2021/05/29 10:26:30;;;;;;;;;;;18.30;99.90;;;;;;5098098;28;19994;-77
2021/05/29 10:28:56;;;;;;;;;;;18.40;99.90;;;;;;5098161;28;19977;-77
2021/05/29 10:31:23;;;;;;;;;;;18.50;99.90;;;;;;5098201;28;19924;-77
2021/05/29 10:33:49;;;;;;;;;;;18.70;99.90;;;;;;5097901;28;19928;-77
2021/05/29 10:36:34;;;;;;;;;;;18.70;99.90;;;;;;5097794;28;19932;-77
2021/05/29 10:39:01;;;;;;;;;;;18.80;99.90;;;;;;5097935;28;19924;-77
2021/05/29 10:41:42;;;;;;;;;;;18.90;99.90;;;;;;5097636;28;19924;-77
2021/05/29 10:44:24;;;;;;;;;;;19.00;99.90;;;;;;5094219;28;20372;-77
2021/05/29 10:47:02;;;;;;;;;;;19.00;99.90;;;;;;5097535;28;19984;-77
2021/05/29 10:49:47;;;;;;;;;;;19.10;99.90;;;;;;5097741;28;19936;-77
2021/05/29 10:52:29;;;;;;;;;;;19.10;99.90;;;;;;5097738;28;19938;-77
2021/05/29 10:55:06;;;;;;;;;;;19.00;99.90;;;;;;5097152;28;20294;-77
2021/05/29 10:57:45;;;;;;;;;;;19.00;99.90;;;;;;5097543;28;19931;-77
2021/05/29 11:00:14;;;;;;;;;;;18.90;99.90;;;;;;5096967;28;19930;-77
2021/05/29 11:02:41;;;;;;;;;;;18.80;99.90;;;;;;5096934;28;19930;-77
2021/05/29 11:05:31;;;;;;;;;;;18.80;99.90;;;;;;5097386;28;20366;-77
2021/05/29 11:07:57;;;;;;;;;;;18.70;99.90;;;;;;5072229;28;19935;-77
2021/05/29 11:10:28;;;;;;;;;;;18.50;99.90;;;;;;5097092;28;19924;-77
2021/05/29 11:12:56;;;;;;;;;;;18.50;99.90;;;;;;5097384;28;20245;-77
2021/05/29 11:15:46;;;;;;;;;;;18.40;99.90;;;;;;5097062;28;20414;-77
2021/05/29 11:18:14;;;;;;;;;;;18.30;99.90;;;;;;5096193;28;19931;-77
2021/05/29 11:20:58;;;;;;;;;;;18.30;99.90;;;;;;5096696;28;19924;-77
2021/05/29 11:23:25;;;;;;;;;;;18.30;99.90;;;;;;5096948;28;19925;-77
2021/05/29 11:25:51;;;;;;;;;;;18.40;99.90;;;;;;5096898;28;20363;-77
2021/05/29 11:28:20;;;;;;;;;;;18.50;99.90;;;;;;5096841;28;19932;-77
2021/05/29 11:30:46;;;;;;;;;;;18.70;99.90;;;;;;5096792;28;19926;-77
2021/05/29 11:33:15;;;;;;;;;;;18.80;99.90;;;;;;5096657;28;19924;-77
2021/05/29 11:35:44;;;;;;;;;;;19.00;99.90;;;;;;5095788;28;20245;-77
2021/05/29 11:38:13;;;;;;;;;;;19.10;99.90;;;;;;5096777;28;19923;-77
2021/05/29 11:40:49;;;;;;;;;;;19.30;99.90;;;;;;5095887;28;20015;-77
2021/05/29 11:43:16;;;;;;;;;;;19.40;99.90;;;;;;5096658;28;19957;-77
2021/05/29 11:45:43;;;;;;;;;;;19.40;99.90;;;;;;5096184;28;19924;-77
2021/05/29 11:48:09;;;;;;;;;;;19.40;99.90;;;;;;5096469;28;19924;-76
2021/05/29 11:50:40;;;;;;;;;;;19.50;99.90;;;;;;5096343;28;19923;-78
2021/05/29 11:53:07;;;;;;;;;;;19.50;99.90;;;;;;5096628;28;19924;-77
2021/05/29 11:55:48;;;;;;;;;;;19.60;99.90;;;;;;5096436;28;19935;-77
2021/05/29 11:58:14;;;;;;;;;;;19.70;99.90;;;;;;5096578;28;19924;-78
2021/05/29 12:00:54;;;;;;;;;;;19.70;99.90;;;;;;5096221;28;19932;-77
2021/05/29 12:03:34;;;;;;;;;;;19.70;99.90;;;;;;5096447;28;19989;-77
2021/05/29 12:06:01;;;;;;;;;;;19.70;99.90;;;;;;5096292;28;19928;-78
2021/05/29 12:08:28;;;;;;;;;;;19.70;99.90;;;;;;5096138;28;19931;-77
2021/05/29 12:10:54;;;;;;;;;;;19.70;99.90;;;;;;5095987;28;19924;-77
2021/05/29 12:13:21;;;;;;;;;;;19.50;99.90;;;;;;5096228;28;20302;-79
2021/05/29 12:15:52;;;;;;;;;;;19.50;99.90;;;;;;5096142;28;19924;-76
2021/05/29 12:18:19;;;;;;;;;;;19.50;99.90;;;;;;5096140;28;19993;-76
2021/05/29 12:20:58;;;;;;;;;;;19.60;99.90;;;;;;5095705;28;19930;-76
2021/05/29 12:23:25;;;;;;;;;;;19.50;99.90;;;;;;5095844;28;19935;-76
2021/05/29 12:25:51;;;;;;;;;;;19.50;99.90;;;;;;5095103;28;19928;-75
2021/05/29 12:28:17;;;;;;;;;;;19.50;99.90;;;;;;5095829;28;19924;-75
2021/05/29 12:30:44;;;;;;;;;;;19.50;99.90;;;;;;5095921;28;19927;-75
2021/05/29 12:33:20;;;;;;;;;;;19.60;99.90;;;;;;5095860;28;19924;-75
2021/05/29 12:35:46;;;;;;;;;;;19.70;99.90;;;;;;5095404;28;19930;-75
2021/05/29 12:38:13;;;;;;;;;;;19.70;99.90;;;;;;5095388;28;19924;-75
2021/05/29 12:40:53;;;;;;;;;;;19.60;99.90;;;;;;5095691;28;19938;-75
2021/05/29 12:43:19;;;;;;;;;;;19.70;99.90;;;;;;5095418;28;20380;-75
2021/05/29 12:45:45;;;;;;;;;;;19.60;99.90;;;;;;5095487;28;20354;-75
2021/05/29 12:48:12;;;;;;;;;;;19.60;99.90;;;;;;5095177;28;19924;-75
2021/05/29 12:50:38;;;;;;;;;;;19.70;99.90;;;;;;5095803;28;19924;-75
2021/05/29 12:53:08;;;;;;;;;;;19.70;99.90;;;;;;5095225;28;19924;-75
2021/05/29 12:55:35;;;;;;;;;;;19.80;99.90;;;;;;5095139;28;20252;-75
2021/05/29 12:58:12;;;;;;;;;;;19.90;99.90;;;;;;5095166;28;20348;-75
2021/05/29 13:00:46;;;;;;;;;;;20.00;99.90;;;;;;5095284;28;19977;-75
2021/05/29 13:09:00;;;;;;;;;;;20.10;99.90;;;;;;5095481;28;19927;-75
2021/05/29 13:11:27;;;;;;;;;;;20.20;99.90;;;;;;5095093;28;20344;-76
2021/05/29 13:13:58;;;;;;;;;;;20.30;99.90;;;;;;5095334;28;19945;-75
2021/05/29 13:16:24;;;;;;;;;;;20.40;99.90;;;;;;5095006;28;19924;-75
2021/05/29 13:19:00;;;;;;;;;;;20.40;99.90;;;;;;5095026;28;19936;-75
2021/05/29 13:21:26;;;;;;;;;;;20.40;99.90;;;;;;5094880;28;20398;-75
2021/05/29 13:23:54;;;;;;;;;;;20.30;99.90;;;;;;5095230;28;20280;-75
2021/05/29 13:26:20;;;;;;;;;;;20.40;99.90;;;;;;5095247;28;20288;-75
2021/05/29 13:28:46;;;;;;;;;;;20.40;99.90;;;;;;5095322;28;19932;-75
2021/05/29 13:31:14;;;;;;;;;;;20.50;99.90;;;;;;5094902;28;20460;-75
2021/05/29 13:33:41;;;;;;;;;;;20.50;99.90;;;;;;5094861;28;19935;-75
2021/05/29 13:36:07;;;;;;;;;;;20.50;99.90;;;;;;5094695;28;19931;-75
2021/05/29 13:38:34;;;;;;;;;;;20.40;99.90;;;;;;5094913;28;19935;-75
2021/05/29 13:41:01;;;;;;;;;;;20.40;99.90;;;;;;5095083;28;19924;-75
2021/05/29 13:43:27;;;;;;;;;;;20.40;99.90;;;;;;5094957;28;19925;-75
2021/05/29 13:45:53;;;;;;;;;;;20.40;99.90;;;;;;5095000;28;19924;-75
2021/05/29 13:48:21;;;;;;;;;;;20.40;99.90;;;;;;5094958;28;19951;-75
2021/05/29 13:50:47;;;;;;;;;;;20.40;99.90;;;;;;5094640;28;20285;-75
2021/05/29 13:53:13;;;;;;;;;;;20.50;99.90;;;;;;5094753;28;19928;-75
2021/05/29 13:55:40;;;;;;;;;;;20.50;99.90;;;;;;5094839;28;19932;-75
2021/05/29 13:58:06;;;;;;;;;;;20.50;99.90;;;;;;5094947;28;19924;-75
2021/05/29 14:00:32;;;;;;;;;;;20.40;99.90;;;;;;5098066;28;19939;-75
2021/05/29 14:03:00;;;;;;;;;;;20.40;99.90;;;;;;5098622;28;19935;-75
2021/05/29 14:05:28;;;;;;;;;;;20.30;99.90;;;;;;5098508;28;19924;-75
2021/05/29 14:07:54;;;;;;;;;;;20.30;99.90;;;;;;5098215;28;20260;-75
2021/05/29 14:10:20;;;;;;;;;;;20.20;99.90;;;;;;5098594;28;19924;-76
2021/05/29 14:12:47;;;;;;;;;;;20.20;99.90;;;;;;5101060;28;20302;-75
2021/05/29 14:15:13;;;;;;;;;;;20.20;99.90;;;;;;5098618;28;19936;-75
2021/05/29 14:17:39;;;;;;;;;;;20.20;99.90;;;;;;5098277;28;19977;-76
2021/05/29 14:20:06;;;;;;;;;;;20.30;99.90;;;;;;5098173;28;19924;-79
2021/05/29 14:22:33;;;;;;;;;;;20.20;99.90;;;;;;5097885;28;19934;-76
2021/05/29 14:25:00;;;;;;;;;;;20.20;99.90;;;;;;5098354;28;19924;-76
2021/05/29 14:27:26;;;;;;;;;;;20.20;99.90;;;;;;5098160;28;19924;-76
2021/05/29 14:29:52;;;;;;;;;;;20.20;99.90;;;;;;5098116;28;19924;-76